Terminal Aerodrome Forecast
Issued by NWS

Home | Current Version | Previous Version | Text Only | Print | Product List | Glossary Off
Versions: 1 2 3 4 5 6 7 8 9 10 11 12

000
FTUS43 KMPX 221741
TAFRNH
TAF
KRNH 221741Z 2218/2318 07006KT 6SM -SHRA SCT025 BKN060
      TEMPO 2218/2221 3SM TSRA OVC025CB
     FM222100 33007KT P6SM VCSH SCT050 BKN100
      TEMPO 2221/2224 5SM SHRA BKN050 OVC090
     FM230100 25004KT P6SM SCT120
     FM231400 30011KT P6SM BKN050=

USA.gov is the U.S. government's official web portal to all federal, state and local government web resources and services.